Time;durP1;ratioP1;P1;durP2;ratioP2;P2;SDS_P1;SDS_P2;PMS_P1;PMS_P2;Temp;Humidity;BMP_temperature;BMP_pressure;BME280_temperature;BME280_humidity;BME280_pressure;Samples;Min_cycle;Max_cycle;Signal;HPM_P1;HPM_P2
2021/06/17 00:00:15;;;;;;;4.65;4.10;;;;;;;26.56;27.25;100664.75;6166359;23;20017;-67
2021/06/17 00:02:44;;;;;;;4.85;4.13;;;;;;;26.49;27.52;100655.59;6166336;23;20015;-68
2021/06/17 00:05:14;;;;;;;6.20;4.60;;;;;;;26.47;27.49;100657.78;6192559;23;20098;-67
2021/06/17 00:07:44;;;;;;;6.28;4.30;;;;;;;26.40;27.33;100657.91;6192448;23;20057;-67
2021/06/17 00:10:21;;;;;;;5.57;4.45;;;;;;;26.40;27.72;100649.47;6192103;23;20349;-67
2021/06/17 00:12:50;;;;;;;5.95;4.47;;;;;;;26.33;27.75;100647.84;6166507;23;20342;-68
2021/06/17 00:15:19;;;;;;;5.22;4.53;;;;;;;26.29;27.50;100645.53;6192441;23;20012;-67
2021/06/17 00:17:47;;;;;;;6.53;4.40;;;;;;;26.25;27.69;100644.31;6192207;23;20009;-68
2021/06/17 00:20:16;;;;;;;5.88;4.47;;;;;;;26.21;27.66;100645.03;6192383;23;20103;-68
2021/06/17 00:22:45;;;;;;;5.35;4.20;;;;;;;26.18;28.05;100637.13;6191893;23;20094;-67
2021/06/17 00:25:15;;;;;;;6.60;4.78;;;;;;;26.15;28.01;100643.19;6191390;23;20011;-67
2021/06/17 00:27:45;;;;;;;5.72;4.53;;;;;;;26.12;27.99;100640.84;6191835;23;20011;-68
2021/06/17 00:30:15;;;;;;;5.43;4.45;;;;;;;26.08;27.94;100636.84;6192469;23;20005;-68
2021/06/17 00:32:44;;;;;;;5.30;4.18;;;;;;;26.03;28.07;100639.50;6165156;23;20021;-67
2021/06/17 00:35:13;;;;;;;4.90;4.40;;;;;;;26.01;27.85;100641.69;6192014;23;20009;-67
2021/06/17 00:37:42;;;;;;;6.57;4.65;;;;;;;25.96;28.22;100633.13;6190999;23;20012;-68
2021/06/17 00:40:14;;;;;;;5.68;4.40;;;;;;;25.94;28.00;100636.16;6192222;23;20021;-68
2021/06/17 00:42:47;;;;;;;5.70;4.60;;;;;;;25.89;28.36;100628.50;6191843;23;20005;-68
2021/06/17 00:45:21;;;;;;;5.65;4.50;;;;;;;25.87;28.19;100627.03;6192833;23;20029;-67
2021/06/17 00:47:49;;;;;;;5.30;4.25;;;;;;;25.82;28.27;100629.69;6165451;23;20025;-68
2021/06/17 00:50:18;;;;;;;6.03;4.68;;;;;;;25.79;28.46;100625.38;6165238;23;20064;-68
2021/06/17 00:52:47;;;;;;;5.20;4.30;;;;;;;25.74;28.53;100616.84;6192534;23;20009;-68
2021/06/17 00:55:15;;;;;;;5.32;4.50;;;;;;;25.72;28.67;100621.81;6165575;23;20266;-68
2021/06/17 00:57:43;;;;;;;5.05;4.43;;;;;;;25.69;28.33;100624.28;6191155;23;20008;-69
2021/06/17 01:00:15;;;;;;;5.20;4.45;;;;;;;25.69;28.96;100615.88;6192694;23;20016;-68
2021/06/17 01:02:46;;;;;;;5.60;4.90;;;;;;;25.64;28.73;100618.50;6191987;23;20377;-69
2021/06/17 01:05:17;;;;;;;5.25;4.43;;;;;;;25.63;28.94;100614.00;6192186;23;20030;-68
2021/06/17 01:07:56;;;;;;;5.70;4.43;;;;;;;25.60;28.93;100620.94;6164986;23;20075;-68
2021/06/17 01:10:28;;;;;;;5.50;4.43;;;;;;;25.58;28.91;100613.88;6191797;23;20022;-68
2021/06/17 01:13:05;;;;;;;5.85;4.40;;;;;;;25.55;28.93;100617.97;6192625;23;20303;-68
2021/06/17 01:16:04;;;;;;;6.13;4.50;;;;;;;25.54;29.08;100608.72;6191433;23;20037;-68
2021/06/17 01:18:33;;;;;;;5.10;4.25;;;;;;;25.50;28.97;100606.66;6192286;23;20017;-68
2021/06/17 01:21:09;;;;;;;5.13;4.63;;;;;;;25.51;28.98;100609.22;6191745;23;20036;-68
2021/06/17 01:24:00;;;;;;;6.40;4.82;;;;;;;25.48;28.75;100606.03;6192023;23;20097;-68
2021/06/17 01:26:41;;;;;;;5.40;4.13;;;;;;;25.45;29.22;100604.53;6191409;23;20037;-68
2021/06/17 01:29:17;;;;;;;5.50;4.57;;;;;;;25.44;29.22;100607.59;6191980;23;20009;-68
2021/06/17 01:31:45;;;;;;;4.47;4.05;;;;;;;25.37;29.00;100604.00;6191470;23;20041;-69
2021/06/17 01:34:16;;;;;;;4.70;4.20;;;;;;;25.39;28.92;100610.25;6192125;23;20045;-68
2021/06/17 01:36:50;;;;;;;5.53;4.28;;;;;;;25.38;28.97;100614.13;6191574;23;20017;-68
2021/06/17 01:39:21;;;;;;;4.78;4.18;;;;;;;25.36;29.09;100616.34;6192282;23;20021;-68
2021/06/17 01:41:50;;;;;;;5.03;4.53;;;;;;;25.30;28.83;100609.72;6189946;23;20110;-69
2021/06/17 01:44:22;;;;;;;5.40;4.22;;;;;;;25.34;29.18;100613.75;6191596;23;20017;-68
2021/06/17 01:46:52;;;;;;;4.95;4.13;;;;;;;25.30;29.32;100615.31;6190679;23;20382;-68
2021/06/17 01:49:21;;;;;;;5.07;4.30;;;;;;;25.31;29.04;100618.97;6192539;23;20253;-68
2021/06/17 01:51:52;;;;;;;4.80;4.30;;;;;;;25.30;29.30;100618.09;6191062;23;20377;-68
2021/06/17 01:54:24;;;;;;;4.95;4.43;;;;;;;25.29;29.31;100618.34;6165802;23;20450;-68
2021/06/17 01:56:54;;;;;;;5.65;4.10;;;;;;;25.26;29.30;100621.63;6192579;23;20009;-68
2021/06/17 01:59:26;;;;;;;5.78;4.28;;;;;;;25.27;28.92;100623.34;6193560;23;20005;-68
2021/06/17 02:01:57;;;;;;;4.47;3.92;;;;;;;25.23;29.29;100620.09;6198131;23;20016;-68
2021/06/17 02:04:28;;;;;;;4.50;3.88;;;;;;;25.23;29.39;100619.25;6192535;23;20005;-68
2021/06/17 02:06:59;;;;;;;5.68;4.47;;;;;;;25.22;29.28;100612.78;6190731;23;20013;-68
2021/06/17 02:09:38;;;;;;;4.72;4.00;;;;;;;25.14;29.46;100613.13;6170159;23;20544;-69
2021/06/17 02:12:08;;;;;;;4.90;4.40;;;;;;;25.15;29.52;100612.03;6192351;23;20114;-68
2021/06/17 02:14:39;;;;;;;4.88;4.20;;;;;;;25.14;29.54;100599.97;6193980;23;20012;-68
2021/06/17 02:17:09;;;;;;;5.30;4.30;;;;;;;25.09;29.63;100601.78;6192244;23;20439;-69
2021/06/17 02:19:37;;;;;;;5.53;4.57;;;;;;;25.05;29.75;100597.72;6193762;23;20060;-69
2021/06/17 02:22:07;;;;;;;5.18;4.30;;;;;;;25.04;29.99;100599.66;6191832;23;20036;-69
2021/06/17 02:24:39;;;;;;;4.78;3.90;;;;;;;25.04;29.53;100604.41;6193528;23;20009;-69
2021/06/17 02:27:12;;;;;;;5.22;4.50;;;;;;;24.99;29.88;100607.06;6192133;23;20009;-69
2021/06/17 02:29:45;;;;;;;4.68;4.13;;;;;;;24.99;29.42;100610.72;6193539;23;20005;-69
2021/06/17 02:32:18;;;;;;;5.05;4.15;;;;;;;24.97;29.68;100612.03;6192946;23;20291;-69
2021/06/17 02:34:48;;;;;;;5.95;4.07;;;;;;;24.93;29.93;100606.06;6193381;23;20009;-69
2021/06/17 02:37:18;;;;;;;5.82;4.80;;;;;;;24.92;30.01;100601.56;6192702;23;20013;-69
2021/06/17 02:39:49;;;;;;;5.07;3.92;;;;;;;24.92;29.82;100607.16;6193723;23;20023;-69
2021/06/17 02:42:19;;;;;;;4.85;4.05;;;;;;;24.88;30.12;100603.09;6192707;23;20338;-69
2021/06/17 02:44:50;;;;;;;6.40;4.97;;;;;;;24.86;30.06;100605.28;6193462;23;20023;-69
2021/06/17 02:47:19;;;;;;;5.97;4.32;;;;;;;24.80;30.31;100609.84;6192569;23;20017;-69
2021/06/17 02:49:48;;;;;;;5.40;4.63;;;;;;;24.77;30.09;100601.94;6193146;23;20090;-69
2021/06/17 02:52:16;;;;;;;5.05;4.30;;;;;;;24.75;30.44;100600.47;6192529;23;20024;-68
2021/06/17 02:54:44;;;;;;;4.97;4.35;;;;;;;24.72;30.11;100612.09;6192807;23;20020;-69
2021/06/17 02:57:24;;;;;;;5.60;4.70;;;;;;;24.71;30.35;100614.03;6166333;23;20013;-69
2021/06/17 03:00:07;;;;;;;5.05;4.10;;;;;;;24.66;30.46;100611.09;6191528;23;20024;-69
2021/06/17 03:02:42;;;;;;;6.40;4.53;;;;;;;24.64;30.58;100609.56;6192927;23;20005;-68
2021/06/17 03:05:15;;;;;;;4.90;4.18;;;;;;;24.62;30.22;100608.97;6192597;23;20346;-69
2021/06/17 03:07:50;;;;;;;5.68;4.25;;;;;;;24.59;30.32;100617.81;6165606;23;20338;-69
2021/06/17 03:10:21;;;;;;;5.80;4.15;;;;;;;24.56;30.22;100616.31;6191962;23;20074;-69
2021/06/17 03:12:52;;;;;;;6.10;4.77;;;;;;;24.49;30.71;100611.88;6193012;23;20009;-68
2021/06/17 03:15:26;;;;;;;6.43;4.10;;;;;;;24.50;30.46;100610.81;6192736;23;20029;-69
2021/06/17 03:17:57;;;;;;;4.50;3.83;;;;;;;24.45;30.35;100614.31;6192278;23;20009;-69
2021/06/17 03:20:27;;;;;;;5.00;3.65;;;;;;;24.41;30.26;100622.28;6191825;23;20005;-69
2021/06/17 03:22:57;;;;;;;6.55;4.28;;;;;;;24.38;30.57;100614.34;6192754;23;20017;-68
2021/06/17 03:25:27;;;;;;;4.78;3.88;;;;;;;24.36;30.77;100616.53;6192915;23;20008;-68
2021/06/17 03:27:57;;;;;;;5.40;4.18;;;;;;;24.35;30.23;100623.19;6192491;23;20036;-69
2021/06/17 03:30:29;;;;;;;5.15;4.32;;;;;;;24.33;30.85;100613.31;6191951;23;20021;-68
2021/06/17 03:33:00;;;;;;;5.35;4.28;;;;;;;24.29;30.57;100610.13;6192800;23;20056;-69
2021/06/17 03:35:32;;;;;;;4.82;3.88;;;;;;;24.28;30.87;100625.22;6192643;23;20417;-69
2021/06/17 03:38:03;;;;;;;6.10;3.92;;;;;;;24.26;30.39;100630.16;6192810;23;20261;-69
2021/06/17 03:40:32;;;;;;;4.63;3.92;;;;;;;24.26;30.79;100626.50;6191853;23;20016;-69
2021/06/17 03:43:01;;;;;;;5.45;4.38;;;;;;;24.25;30.88;100628.44;6167080;23;20042;-69
2021/06/17 03:45:33;;;;;;;5.63;4.43;;;;;;;24.25;31.22;100622.00;6192462;23;20070;-69
2021/06/17 03:48:02;;;;;;;5.47;4.47;;;;;;;24.21;31.25;100631.94;6192765;23;20017;-68
2021/06/17 03:50:31;;;;;;;6.82;4.40;;;;;;;24.21;30.97;100624.38;6192319;23;20017;-68
2021/06/17 03:53:01;;;;;;;5.10;4.20;;;;;;;24.22;31.17;100619.66;6192164;23;20005;-68
2021/06/17 03:55:33;;;;;;;4.75;3.92;;;;;;;24.19;31.29;100618.19;6165678;23;20017;-68
2021/06/17 03:58:02;;;;;;;5.75;4.25;;;;;;;24.15;31.47;100619.72;6165657;23;20009;-68
2021/06/17 04:00:33;;;;;;;5.03;4.15;;;;;;;24.18;31.25;100630.44;6164867;23;20338;-68
2021/06/17 04:03:07;;;;;;;6.05;4.30;;;;;;;24.16;31.18;100617.78;6192367;23;20008;-68
2021/06/17 04:05:35;;;;;;;6.30;4.50;;;;;;;24.11;31.05;100623.19;6191539;23;20290;-67
2021/06/17 04:08:08;;;;;;;5.15;4.30;;;;;;;24.12;31.53;100631.38;6164787;23;20099;-68
2021/06/17 04:10:36;;;;;;;5.63;4.15;;;;;;;24.05;31.62;100625.78;6191970;23;20012;-68
2021/06/17 04:13:06;;;;;;;5.95;4.55;;;;;;;24.07;31.71;100633.97;6192654;23;20049;-68
2021/06/17 04:15:56;;;;;;;5.93;4.32;;;;;;;24.06;31.66;100630.31;6188109;23;20020;-68
2021/06/17 04:18:45;;;;;;;4.93;4.20;;;;;;;24.05;31.30;100633.28;6187961;23;20008;-69
2021/06/17 04:21:36;;;;;;;5.95;4.45;;;;;;;24.05;31.61;100630.50;6188651;23;20041;-68
2021/06/17 04:24:26;;;;;;;5.47;4.47;;;;;;;24.04;31.95;100617.63;6188546;23;20008;-68
2021/06/17 04:27:15;;;;;;;6.63;4.90;;;;;;;24.02;31.80;100622.59;6187706;23;20020;-69
2021/06/17 04:29:44;;;;;;;6.50;4.43;;;;;;;24.02;31.94;100619.78;6192022;23;20458;-68
2021/06/17 04:32:15;;;;;;;5.90;4.82;;;;;;;24.03;31.92;100622.38;6191729;23;20247;-68
2021/06/17 04:34:45;;;;;;;5.32;4.10;;;;;;;24.02;32.00;100619.78;6192158;23;20016;-68
2021/06/17 04:37:16;;;;;;;6.07;4.65;;;;;;;24.02;32.11;100617.00;6165736;23;20027;-68
2021/06/17 04:39:44;;;;;;;5.80;4.32;;;;;;;24.00;31.92;100622.81;6192235;23;20401;-68
2021/06/17 04:42:14;;;;;;;6.10;4.60;;;;;;;24.01;31.73;100618.94;6191873;23;20005;-68
2021/06/17 04:44:44;;;;;;;5.72;4.47;;;;;;;24.02;32.21;100622.59;6192424;23;20012;-68
2021/06/17 04:47:17;;;;;;;5.53;4.40;;;;;;;24.04;32.36;100620.44;6191261;23;20012;-68
2021/06/17 04:49:46;;;;;;;4.55;3.83;;;;;;;24.01;31.79;100624.53;6192166;23;20005;-68
2021/06/17 04:52:16;;;;;;;5.10;3.85;;;;;;;24.04;31.84;100623.22;6190586;23;20017;-68
2021/06/17 04:54:44;;;;;;;6.68;4.00;;;;;;;24.02;31.94;100615.06;6192854;23;20090;-69
2021/06/17 04:57:12;;;;;;;5.68;4.15;;;;;;;24.04;32.21;100612.88;6190985;23;20266;-68
2021/06/17 04:59:40;;;;;;;5.57;4.30;;;;;;;24.06;31.90;100619.13;6192019;23;20016;-68
2021/06/17 05:02:09;;;;;;;4.93;3.85;;;;;;;24.08;32.35;100627.31;6165556;23;20040;-68
2021/06/17 05:04:39;;;;;;;5.15;4.20;;;;;;;24.13;32.15;100630.25;6192075;23;20021;-68
2021/06/17 05:07:27;;;;;;;5.40;4.32;;;;;;;24.14;32.39;100626.38;6191230;23;20009;-69
2021/06/17 05:12:47;;;;;;;5.28;3.92;;;;;;;24.28;32.78;100625.22;6191910;23;20009;-69
2021/06/17 05:15:16;;;;;;;4.95;3.90;;;;;;;24.39;33.11;100630.03;6191312;23;20005;-69
2021/06/17 05:17:45;;;;;;;4.40;3.50;;;;;;;24.52;32.67;100634.66;6165016;23;20005;-69
2021/06/17 05:20:16;;;;;;;4.80;4.10;;;;;;;24.69;32.79;100635.81;6191936;23;20044;-69
2021/06/17 05:22:46;;;;;;;5.68;3.70;;;;;;;24.86;32.98;100632.41;6192495;23;20021;-69
2021/06/17 05:25:14;;;;;;;5.07;3.83;;;;;;;25.02;32.50;100638.25;6191409;23;20013;-68
2021/06/17 05:27:43;;;;;;;5.43;3.78;;;;;;;25.21;32.48;100641.88;6191977;23;20306;-67
2021/06/17 05:30:13;;;;;;;4.55;3.85;;;;;;;25.40;32.35;100643.59;6166017;23;20035;-67
2021/06/17 05:32:43;;;;;;;5.93;3.78;;;;;;;25.58;32.42;100642.72;6191597;23;20369;-67
2021/06/17 05:35:12;;;;;;;6.55;4.20;;;;;;;25.76;32.01;100639.88;6164351;23;20270;-67
2021/06/17 05:37:43;;;;;;;9.70;4.35;;;;;;;25.96;31.82;100649.97;6191119;23;20354;-68
2021/06/17 05:40:12;;;;;;;5.15;3.75;;;;;;;26.08;31.39;100648.06;6190989;23;20013;-71
2021/06/17 05:42:40;;;;;;;5.68;3.33;;;;;;;26.21;31.07;100647.81;6192126;23;20013;-72
2021/06/17 05:45:11;;;;;;;5.75;3.28;;;;;;;26.36;30.87;100647.34;6194109;23;20016;-71
2021/06/17 05:47:39;;;;;;;5.10;3.63;;;;;;;26.47;30.84;100649.38;6167102;23;20328;-72
2021/06/17 05:50:09;;;;;;;5.78;3.55;;;;;;;26.57;31.08;100650.47;6193810;23;20447;-72
2021/06/17 05:52:37;;;;;;;5.32;3.63;;;;;;;26.63;30.41;100649.50;6191443;23;20001;-72
2021/06/17 05:55:09;;;;;;;5.72;3.58;;;;;;;26.73;30.13;100657.31;6192554;23;20009;-73
2021/06/17 05:57:38;;;;;;;4.97;3.50;;;;;;;26.73;30.18;100654.50;6193587;23;20028;-73
2021/06/17 06:00:08;;;;;;;4.28;3.22;;;;;;;26.79;29.97;100658.28;6167609;23;20357;-73
2021/06/17 06:02:38;;;;;;;4.50;3.20;;;;;;;26.81;29.99;100661.69;6193069;23;20309;-72
2021/06/17 06:05:07;;;;;;;5.82;2.97;;;;;;;26.82;30.11;100657.78;6167320;23;20008;-75
2021/06/17 06:07:38;;;;;;;3.85;3.25;;;;;;;26.83;30.09;100660.38;6165845;23;20009;-74
2021/06/17 06:10:11;;;;;;;4.38;3.38;;;;;;;26.88;29.70;100656.81;6166409;23;20362;-75
2021/06/17 06:12:41;;;;;;;4.60;3.30;;;;;;;26.87;29.95;100649.47;6188269;23;20013;-73
2021/06/17 06:15:12;;;;;;;4.80;3.28;;;;;;;26.90;29.78;100649.00;6192381;23;20009;-73
2021/06/17 06:17:41;;;;;;;3.47;3.03;;;;;;;26.88;29.80;100654.84;6193010;23;20009;-73
2021/06/17 06:20:11;;;;;;;4.90;3.65;;;;;;;26.93;29.94;100657.81;6192506;23;20029;-73
2021/06/17 06:22:41;;;;;;;4.93;3.08;;;;;;;26.95;29.87;100666.84;6193403;23;20020;-74
2021/06/17 06:25:12;;;;;;;4.85;3.33;;;;;;;27.00;29.32;100664.16;6193555;23;20287;-75
2021/06/17 06:27:42;;;;;;;5.57;3.53;;;;;;;26.97;29.43;100661.84;6193572;23;20017;-73
2021/06/17 06:30:12;;;;;;;4.88;3.20;;;;;;;27.03;29.60;100665.59;6194722;23;20417;-75
2021/06/17 06:32:41;;;;;;;4.88;3.80;;;;;;;27.05;29.70;100667.06;6194348;23;20084;-74
2021/06/17 06:35:10;;;;;;;5.30;3.70;;;;;;;27.11;29.39;100670.00;6195092;23;20009;-74
2021/06/17 06:37:39;;;;;;;5.15;3.42;;;;;;;27.14;29.18;100663.91;6196543;23;20005;-74
2021/06/17 06:40:08;;;;;;;5.28;3.20;;;;;;;27.20;28.98;100662.91;6194036;23;20270;-75
2021/06/17 06:42:41;;;;;;;5.43;3.85;;;;;;;27.21;28.78;100679.50;6192425;23;20069;-72
2021/06/17 06:45:10;;;;;;;5.00;3.70;;;;;;;27.22;28.77;100681.22;6166850;23;20115;-73
2021/06/17 06:47:40;;;;;;;5.22;3.45;;;;;;;27.21;28.76;100679.50;6193060;23;20005;-75
2021/06/17 06:50:09;;;;;;;5.63;3.58;;;;;;;27.23;28.87;100677.31;6192642;23;20020;-74
2021/06/17 06:52:39;;;;;;;6.25;3.75;;;;;;;27.24;28.77;100675.34;6192426;23;20009;-73
2021/06/17 06:55:09;;;;;;;5.20;3.33;;;;;;;27.26;28.79;100678.75;6192052;23;20016;-73
2021/06/17 06:57:37;;;;;;;5.53;3.28;;;;;;;27.26;28.79;100667.50;6164918;23;20037;-74
2021/06/17 07:00:10;;;;;;;5.72;3.85;;;;;;;27.32;28.59;100677.78;6166631;23;20009;-74
2021/06/17 07:02:43;;;;;;;4.97;3.75;;;;;;;27.29;28.59;100669.84;6192572;23;20009;-73
2021/06/17 07:05:13;;;;;;;4.00;3.17;;;;;;;27.32;28.42;100667.41;6166291;23;20289;-74
2021/06/17 07:07:41;;;;;;;5.75;3.58;;;;;;;27.33;28.41;100668.25;6165746;23;20079;-75
2021/06/17 07:10:11;;;;;;;5.13;3.75;;;;;;;27.35;28.54;100678.13;6192807;23;20330;-74
2021/06/17 07:12:40;;;;;;;4.38;3.25;;;;;;;27.38;28.60;100685.22;6194008;23;20028;-73
2021/06/17 07:15:12;;;;;;;7.18;3.65;;;;;;;27.44;28.57;100690.69;6192515;23;20016;-73
2021/06/17 07:17:40;;;;;;;4.40;3.30;;;;;;;27.45;28.86;100680.31;6165804;23;20114;-76
2021/06/17 07:20:11;;;;;;;6.15;3.55;;;;;;;27.56;28.56;100685.06;6166086;23;20041;-74
2021/06/17 07:22:40;;;;;;;4.60;3.20;;;;;;;27.59;28.94;100675.28;6190071;23;20016;-74
2021/06/17 07:25:10;;;;;;;4.90;3.67;;;;;;;27.68;28.75;100682.22;6191816;23;20013;-73
2021/06/17 07:27:38;;;;;;;5.45;3.22;;;;;;;27.75;28.62;100697.81;6191552;23;20012;-73
2021/06/17 07:30:09;;;;;;;5.03;3.55;;;;;;;27.85;28.25;100688.75;6191441;23;20528;-73
2021/06/17 07:32:40;;;;;;;5.50;3.47;;;;;;;27.93;28.41;100693.97;6140911;23;20032;-73
2021/06/17 07:35:09;;;;;;;6.10;3.70;;;;;;;28.00;28.05;100694.69;6191458;23;20015;-73
2021/06/17 07:37:38;;;;;;;5.47;3.45;;;;;;;28.09;28.07;100681.06;6191140;23;20005;-74
2021/06/17 07:40:09;;;;;;;4.22;3.40;;;;;;;28.18;28.33;100680.41;6165889;23;20015;-73
2021/06/17 07:42:38;;;;;;;4.75;3.60;;;;;;;28.23;28.37;100676.84;6165043;23;20005;-73
2021/06/17 07:45:09;;;;;;;4.38;3.17;;;;;;;28.34;28.16;100675.91;6192590;23;20016;-74
2021/06/17 07:47:40;;;;;;;5.20;3.30;;;;;;;28.44;28.20;100678.06;6191907;23;20024;-73
2021/06/17 07:50:11;;;;;;;4.55;3.13;;;;;;;28.54;28.01;100664.19;6166666;23;20011;-75
2021/06/17 07:52:39;;;;;;;5.13;3.20;;;;;;;28.61;28.03;100664.88;6191151;23;20005;-75
2021/06/17 07:55:09;;;;;;;4.75;3.33;;;;;;;28.75;27.83;100677.47;6191984;23;20029;-75
2021/06/17 07:57:38;;;;;;;5.13;3.00;;;;;;;28.84;27.62;100680.72;6192391;23;20374;-75
2021/06/17 08:00:08;;;;;;;4.82;3.30;;;;;;;28.95;27.31;100671.31;6192996;23;20009;-75
2021/06/17 08:02:36;;;;;;;4.95;3.70;;;;;;;29.01;27.07;100663.78;6192400;23;20016;-75
2021/06/17 08:05:08;;;;;;;5.05;3.45;;;;;;;29.15;26.82;100676.44;6192544;23;20016;-75
2021/06/17 08:07:36;;;;;;;4.03;3.28;;;;;;;29.17;27.09;100662.91;6192081;23;20008;-74
2021/06/17 08:10:06;;;;;;;4.63;3.40;;;;;;;29.27;26.62;100661.09;6192518;23;20016;-74
2021/06/17 08:12:35;;;;;;;5.15;3.40;;;;;;;29.36;26.64;100669.09;6192156;23;20051;-75
2021/06/17 08:15:05;;;;;;;4.75;3.47;;;;;;;29.45;26.42;100657.09;6166482;23;20001;-74
2021/06/17 08:17:34;;;;;;;4.47;3.28;;;;;;;29.52;26.26;100654.94;6191429;23;20009;-75
2021/06/17 08:20:04;;;;;;;5.53;3.10;;;;;;;29.60;26.22;100654.50;6164859;23;20052;-75
2021/06/17 08:22:33;;;;;;;4.85;3.47;;;;;;;29.71;25.88;100652.66;6191850;23;20017;-75
2021/06/17 08:25:02;;;;;;;4.10;3.13;;;;;;;29.79;25.83;100662.63;6166064;23;20024;-75
2021/06/17 08:27:30;;;;;;;4.00;3.28;;;;;;;29.85;25.70;100673.69;6191689;23;20098;-75
2021/06/17 08:29:58;;;;;;;6.30;3.75;;;;;;;29.93;25.25;100689.28;6192674;23;20020;-75
2021/06/17 08:32:27;;;;;;;4.78;3.55;;;;;;;30.01;25.76;100698.13;6191872;23;20190;-74
2021/06/17 08:34:55;;;;;;;5.70;3.42;;;;;;;30.09;25.59;100693.13;6166045;23;20005;-74
2021/06/17 08:37:24;;;;;;;4.60;3.50;;;;;;;30.16;25.47;100697.44;6164770;23;20024;-74
2021/06/17 08:39:58;;;;;;;4.78;3.40;;;;;;;30.25;25.77;100693.03;6193414;23;20009;-74
2021/06/17 08:42:27;;;;;;;4.90;3.13;;;;;;;30.31;25.39;100696.75;6165829;23;20041;-75
2021/06/17 08:44:57;;;;;;;4.60;3.42;;;;;;;30.40;25.21;100703.59;6166177;23;20010;-75
2021/06/17 08:47:26;;;;;;;3.45;2.85;;;;;;;30.49;25.68;100693.53;6192109;23;20029;-76
2021/06/17 08:49:56;;;;;;;5.25;3.63;;;;;;;30.54;25.24;100693.63;6192028;23;20015;-74
2021/06/17 08:52:24;;;;;;;4.32;3.30;;;;;;;30.63;25.18;100691.16;6192007;23;20012;-75
2021/06/17 08:54:52;;;;;;;4.43;3.58;;;;;;;30.71;25.26;100685.00;6165196;23;20299;-74
2021/06/17 08:57:22;;;;;;;5.35;3.53;;;;;;;30.81;25.14;100681.38;6191315;23;20090;-75
2021/06/17 08:59:51;;;;;;;5.45;3.35;;;;;;;30.86;24.87;100676.66;6189133;23;20017;-75
2021/06/17 09:02:20;;;;;;;4.22;3.20;;;;;;;30.93;25.47;100676.41;6190887;23;20079;-76
2021/06/17 09:04:48;;;;;;;4.50;3.40;;;;;;;31.02;24.88;100678.47;6165545;23;20489;-75
2021/06/17 09:07:17;;;;;;;4.28;2.80;;;;;;;31.11;25.35;100674.00;6191321;23;20009;-75
2021/06/17 09:09:47;;;;;;;4.32;2.83;;;;;;;31.22;24.91;100669.25;6192362;23;20017;-75
2021/06/17 09:12:19;;;;;;;4.72;3.10;;;;;;;31.31;24.97;100670.44;6191540;23;20017;-75
2021/06/17 09:15:05;;;;;;;3.50;2.95;;;;;;;31.43;24.81;100678.69;6165492;23;20013;-74
2021/06/17 09:17:33;;;;;;;5.47;3.10;;;;;;;31.47;24.15;100668.53;6191228;23;20009;-75
2021/06/17 09:20:02;;;;;;;4.93;3.67;;;;;;;31.57;24.28;100667.75;6163661;23;20428;-75
2021/06/17 09:22:30;;;;;;;4.65;3.25;;;;;;;31.64;23.51;100672.00;6188156;23;20005;-75
2021/06/17 09:24:59;;;;;;;5.78;3.22;;;;;;;31.72;24.11;100663.00;6191751;23;20025;-75
2021/06/17 09:27:31;;;;;;;3.80;3.00;;;;;;;31.82;23.94;100670.66;6191343;23;20021;-75
2021/06/17 09:30:18;;;;;;;4.35;3.22;;;;;;;31.86;23.27;100674.66;6140334;23;20009;-75
2021/06/17 09:32:48;;;;;;;4.20;3.30;;;;;;;31.94;23.64;100670.44;6190472;23;20005;-76
2021/06/17 09:35:19;;;;;;;4.07;3.10;;;;;;;32.00;23.40;100667.34;6192231;23;20041;-76
2021/06/17 09:37:49;;;;;;;4.32;3.10;;;;;;;32.05;23.44;100660.84;6191630;23;20094;-76
2021/06/17 09:40:26;;;;;;;3.88;2.83;;;;;;;32.15;23.65;100652.38;6191237;23;20017;-76
2021/06/17 09:42:56;;;;;;;3.95;3.03;;;;;;;32.19;23.53;100653.53;6191894;23;20029;-76
2021/06/17 09:45:26;;;;;;;4.45;2.67;;;;;;;32.28;23.44;100649.00;6191771;23;20024;-76
2021/06/17 09:47:55;;;;;;;3.67;2.83;;;;;;;32.33;23.56;100649.00;6189182;23;20075;-75
2021/06/17 09:50:27;;;;;;;4.95;2.97;;;;;;;32.45;22.70;100648.72;6159684;23;20691;-78
2021/06/17 09:52:56;;;;;;;4.82;2.95;;;;;;;32.49;23.52;100649.88;6191720;23;20017;-77
2021/06/17 09:55:40;;;;;;;4.88;3.08;;;;;;;32.57;22.20;100636.00;6192694;23;20032;-77
2021/06/17 09:58:12;;;;;;;4.90;2.95;;;;;;;32.62;23.04;100630.31;6191404;23;20005;-77
2021/06/17 10:00:57;;;;;;;4.20;3.10;;;;;;;32.69;22.97;100630.06;6191276;23;20435;-77
2021/06/17 10:03:27;;;;;;;4.70;3.00;;;;;;;32.72;22.52;100625.78;6189112;23;20009;-76
2021/06/17 10:05:56;;;;;;;4.80;3.15;;;;;;;32.79;22.25;100632.84;6191493;23;20012;-76
2021/06/17 10:08:25;;;;;;;4.22;3.22;;;;;;;32.84;22.47;100632.00;6191491;23;20028;-76
2021/06/17 10:10:54;;;;;;;4.28;3.13;;;;;;;32.89;22.08;100631.97;6192010;23;20251;-75
2021/06/17 10:13:26;;;;;;;4.45;3.10;;;;;;;32.95;22.08;100630.84;6191736;23;20008;-78
2021/06/17 10:15:57;;;;;;;4.78;3.00;;;;;;;33.02;21.82;100623.75;6191630;23;20052;-76
2021/06/17 10:18:25;;;;;;;4.35;3.03;;;;;;;33.07;22.47;100625.72;6191770;23;20041;-76
2021/06/17 10:20:54;;;;;;;4.32;3.20;;;;;;;33.12;21.75;100614.38;6165449;23;20011;-76
2021/06/17 10:23:22;;;;;;;3.65;2.90;;;;;;;33.19;22.13;100605.53;6191660;23;20009;-76
2021/06/17 10:25:52;;;;;;;5.15;3.08;;;;;;;33.26;21.95;100606.97;6163493;23;20106;-77
2021/06/17 10:28:41;;;;;;;4.65;3.13;;;;;;;33.34;21.37;100602.66;6164117;23;20025;-77
2021/06/17 10:31:12;;;;;;;5.20;3.40;;;;;;;33.42;21.86;100593.59;6190574;23;20009;-76
2021/06/17 10:33:41;;;;;;;4.15;3.22;;;;;;;33.46;21.52;100591.00;6166228;23;20010;-76
2021/06/17 10:36:35;;;;;;;5.43;3.45;;;;;;;33.57;21.04;100589.81;6192796;23;20009;-77
2021/06/17 10:39:19;;;;;;;5.25;3.38;;;;;;;33.62;20.93;100581.25;6193902;23;20041;-77
2021/06/17 10:42:13;;;;;;;3.67;3.00;;;;;;;33.67;21.46;100587.78;6192109;23;20099;-76
2021/06/17 10:44:50;;;;;;;4.22;3.30;;;;;;;33.73;20.44;100580.06;6167604;23;20006;-76
2021/06/17 10:48:08;;;;;;;4.47;2.83;;;;;;;33.74;20.81;100579.78;6193016;23;20005;-76
2021/06/17 10:50:55;;;;;;;4.88;3.35;;;;;;;33.82;21.04;100586.00;6167805;23;20009;-75
2021/06/17 10:53:45;;;;;;;5.50;3.10;;;;;;;33.87;20.37;100578.28;6193594;23;20099;-75
2021/06/17 10:56:19;;;;;;;4.53;3.53;;;;;;;33.92;20.37;100591.63;6192716;23;20008;-75
2021/06/17 10:58:59;;;;;;;4.18;3.30;;;;;;;34.00;20.05;100579.63;6193171;23;20013;-75
2021/06/17 11:01:44;;;;;;;4.00;2.88;;;;;;;34.04;20.21;100577.88;6194508;23;20024;-76
2021/06/17 11:04:19;;;;;;;3.95;2.80;;;;;;;34.10;20.08;100571.00;6193596;23;20005;-75
2021/06/17 11:07:18;;;;;;;4.75;3.13;;;;;;;34.15;20.00;100581.50;6193493;23;20091;-76
2021/06/17 11:10:00;;;;;;;3.90;2.90;;;;;;;34.24;20.69;100594.78;6194125;23;20025;-76
2021/06/17 11:12:46;;;;;;;4.53;3.15;;;;;;;34.30;20.61;100589.91;6193476;23;20025;-76
2021/06/17 11:15:42;;;;;;;3.72;3.08;;;;;;;34.36;20.01;100600.06;6193653;23;20009;-75
2021/06/17 11:18:10;;;;;;;4.78;3.08;;;;;;;34.40;20.37;100609.69;6193725;23;20049;-76
2021/06/17 11:20:44;;;;;;;4.65;3.10;;;;;;;34.49;19.43;100605.06;6166492;23;20341;-75
2021/06/17 11:23:17;;;;;;;3.80;3.05;;;;;;;34.54;19.39;100602.16;6193389;23;20020;-76
2021/06/17 11:25:48;;;;;;;3.70;3.13;;;;;;;34.53;19.67;100594.78;6192660;23;20016;-75
2021/06/17 11:28:22;;;;;;;3.85;3.03;;;;;;;34.58;19.36;100602.44;6193317;23;20009;-75
2021/06/17 11:30:58;;;;;;;4.85;2.85;;;;;;;34.63;18.67;100602.38;6166799;23;20269;-75
2021/06/17 11:33:47;;;;;;;4.07;3.17;;;;;;;34.63;19.20;100608.06;6193717;23;20015;-74
2021/06/17 11:36:20;;;;;;;4.43;3.10;;;;;;;34.64;19.75;100619.13;6192770;23;20009;-75
2021/06/17 11:38:53;;;;;;;4.82;3.30;;;;;;;34.69;19.24;100615.41;6194176;23;20016;-75
2021/06/17 11:41:42;;;;;;;5.97;3.28;;;;;;;34.66;19.75;100616.00;6166767;23;20008;-75
2021/06/17 11:44:10;;;;;;;4.75;3.15;;;;;;;34.69;19.60;100613.41;6142429;23;20041;-74
2021/06/17 11:46:41;;;;;;;4.20;3.17;;;;;;;34.71;19.34;100622.47;6192579;23;20012;-75
2021/06/17 11:49:34;;;;;;;4.35;3.40;;;;;;;34.69;18.84;100610.56;6193536;23;20020;-74